AirNav   Air Wisconsin Up To $57,000 Bonus
 
 1034 users online  

1T7 Kestrel Airpark
San Antonio, Texas, USA

GOING TO SAN ANTONIO?


FAA INFORMATION EFFECTIVE 16 JUNE 2022

Location

FAA Identifier: 1T7
Lat/Long: 29-48-42.3000N 098-25-33.8000W
29-48.705000N 098-25.563333W
29.8117500,-98.4260556
(estimated)
Elevation: 1261 ft. / 384 m (estimated)
Variation: 07E (1995)
From city: 23 miles N of SAN ANTONIO, TX
Time zone: UTC -5 (UTC -6 during Standard Time)
Zip code: 78070

Airport Operations

Airport use: Open to the public
Activation date: 06/1999
Control tower: no
ARTCC: HOUSTON CENTER
FSS: SAN ANGELO FLIGHT SERVICE STATION
NOTAMs facility: SJT (NOTAM-D service available)
Attendance: CONTINUOUS
Wind indicator: yes
Segmented circle: yes
Lights: SS-SR

Airport Communications

CTAF/UNICOM: 122.975
WX AWOS-3 at 5C1 (15 nm W): 118.725 (830-755-9099)
WX ASOS at SAT (17 nm S): PHONE 210-805-5583

Airport Services

Fuel available: 100LL
100LL:SELF SERV FUEL. FOR ASSISTANCE CALL 830-522-1885.
Parking: tiedowns
Airframe service: MAJOR
Powerplant service: MAJOR
Bulk oxygen: HIGH

Runway Information

Runway 12/30

Dimensions: 3000 x 40 ft. / 914 x 12 m
Surface: asphalt, in good condition
Runway edge lights: non-standard
NONSTD LIRL; RWY 12 LGTS NOT AT THR.
Runway edge markings: RWY NRS 35 FT HIGH.
Operational restrictions: RWY 30 RISES RAPIDLY AT NORTH END. 12 END 49 FT HIGHER THAN 30 END.
RUNWAY 12  RUNWAY 30
Latitude: 29-48.856647N29-48.553942N
Longitude: 098-25.788255W098-25.339040W
Elevation: 1261.0 ft.1218.0 ft.
Traffic pattern: leftright
Runway heading: 121 magnetic, 128 true301 magnetic, 308 true
Markings: NSTD, in good conditionNSTD, in good condition
Obstructions: 21 ft. trees, 295 ft. from runway, 30 ft. left of centerline, 4:1 slope to clear
15 FT RD 0 FT DSTC 70 FT L; 35 FT TREE 110 FT DSTC, 70 FT L; 35 FT TREE, O FT DSTC, 85 FT L.
15 ft. road, 200 ft. from runway
15 FT RD 0 FT DSTC 67 FT L.

Airport Ownership and Management from official FAA records

Ownership: Privately-owned
Owner: KESTREL AIRPARK RUNWAY ASSOCIATION
150 FLIGHTLINE DRIVE
SPRING BRANCH, TX 78070
Phone (830) 522-1885
Manager: DOUG HOOKER
210 KESTREL DRIVE
SPRING BRANCH, TX 78070
Phone (830) 522-1885

Airport Operational Statistics

Aircraft based on the field: 83
Single engine airplanes: 75
Multi engine airplanes: 5
Helicopters: 2
Ultralights: 1
    
Aircraft operations: avg 133/week *
95% local general aviation
5% transient general aviation
* for 12-month period ending 10 May 2020

Additional Remarks

DEER ON & INVOF RWY.
TGL AND LOW APCHS PROHIBITED FOR TRAN & COML ACFT. TKOFS RSTRD BTN 2200-0600.
HEL TRNG OPS PROHIBITED.
FOR CD CTC SAN ANTONIO APCH AT 210-805-5516.
USE EXTREME CTN FOR HIGH PER MIL ACFT FROM RANDOLPH AFB AT OR ABV 3000 FT MSL MON-FRI 0800-2200 AND WHEN TWR HRS EXTD BY NOTAM, OCNL SAT AND SUN.
RWY 12 120 FT RISING TRRN 0.4 MI NW OF RWY END. NONSTD AIMING POINT MARKINGS AT 500 FT, 2490 FT REMAINING.

Instrument Procedures

There are no published instrument procedures at 1T7.

Some nearby airports with instrument procedures:

5C1 - Boerne Stage Field Airport (15 nm W)
KSAT - San Antonio International Airport (17 nm S)
KRND - Randolph Air Force Base (19 nm SE)
KBAZ - New Braunfels National Airport (21 nm E)
KSKF - Kelly Field Airport (27 nm S)
 
Loc | Ops | Rwys | IFR | FBO | Links
Com | Nav | Svcs | Stats | Notes
Area around 1T7 (Kestrel Airpark)
 
Road maps at: MapQuest Bing Google
 
Aerial photo
WARNING: Photo may not be current or correct
Aerial photo of 1T7 (Kestrel Airpark)
Do you have a better or more recent aerial photo of Kestrel Airpark that you would like to share? If so, please send us your photo.

 
Sectional chart

 
Airport distance calculator
Flying to Kestrel Airpark? Find the distance to fly.

From to 1T7

Sunrise and sunset
Times for 27-Jun-2022
 Local
(UTC-5)
 Zulu
(UTC)
Morning civil twilight06:0911:09
Sunrise06:3611:36
Sunset20:3701:37
Evening civil twilight21:0502:05

Current date and time
Zulu (UTC)  28-Jun-2022 02:23:30
Local (UTC-5)  27-Jun-2022 21:23:30
 
METAR
K5C1 
15nm W 
280155Z AUTO 11007KT 10SM CLR 22/20 A3013 RMK AO1
KSAT 
17nm S 
280151Z 08010G20KT 10SM FEW050 SCT140 OVC250 26/19 A3010 RMK AO2 PK WND 08030/0116 SLP174 T02560194
KRND 
20nm SE 
280156Z AUTO 06006KT 10SM FEW050 SCT150 24/19 A3007 RMK AO2 PK WND 06026/22 SLP175 T02380191
KBAZ 
20nm E 
280151Z 11009KT 10SM -RA CLR 24/20 A3007 RMK AO2 PK WND 06032/0054 LTG DSNT NE RAB0055 PRESFR SLP172 P0000 T02390200 $
KSKF 
28nm S 
280156Z AUTO 06016G26KT 10SM SCT140 26/19 A3007 RMK AO2 PK WND 06029/32 SLP175 T02630192 $
KSSF 
29nm S 
280153Z 07016G31KT 10SM CLR 27/20 A3006 RMK AO2 PK WND 08034/0057 SLP167 T02670200
KHYI 
29nm E 
280156Z AUTO 12014KT 10SM FEW048 BKN070 OVC100 24/22 A3007 RMK AO2 PK WND 09028/0103 LTG DSNT N AND NE TSE48 SLP175 P0011 T02390222
TAF
KSAT 
17nm S 
272301Z 2723/2824 02006KT P6SM VCSH SCT150 OVC250 FM280300 02008KT P6SM FEW050 FEW100 BKN250 FM281600 05011KT P6SM VCSH BKN050
KRND 
20nm SE 
271530Z 2716/2822 35009KT 9999 SCT070 BKN095 QNH3004INS BECMG 2720/2721 03012KT 9999 VCTS SCT060CB BKN075 QNH2998INS TEMPO 2720/2805 VRB25G35KT 3200 TSRA FEW030 BKN060CB OVC120 BECMG 2805/2806 34009KT 9999 VCSH BKN020 OVC027 QNH3010INS BECMG 2808/2809 32010G15KT 9999 NSW FEW019 FEW027 BKN040 QNH3009INS BECMG 2811/2812 VRB06KT 9000 BR FEW027 FEW060 BKN190 QNH3005INS TX37/2717Z TN23/2811Z LAST NO AMDS AFT 2800 NEXT 2810
NOTAMs
Click for the latest NOTAMs
NOTAMs are issued by the DoD/FAA and will open in a separate window not controlled by AirNav.

 

 
 

FBO, Fuel Providers, and Aircraft Ground Support

  
 Business Name 
 
 Contact 
 
 Services / Description 
 
Fuel Prices
 
Comments
  
 Aloha Aviation Services
830-522-1885
[web site]
[email]
Aviation fuel, Oxygen service, Aircraft parking (ramp or tiedown), Hangars, Hangar leasing / sales, Passenger terminal and lounge, Flight training, ...

More info about Aloha Aviation Services
Phillips 66
100LL
SS $7.09 
GUARANTEED
 
   2 read write
SS=Self service
Update Fuel Prices
 

Would you like to see your business listed on this page?

 If your business provides an interesting product or service to pilots, flight crews, aircraft, or users of the Kestrel Airpark, you should consider listing it here.  To start the listing process, click on the button below
 
Add a business
 

Other Pages about Kestrel Airpark

www.kestrelairport.com
www.kestrel-airpark.com
 
Update a link
 
Copyright © AirNav, LLC. All rights reserved. Privacy Policy  Contact